Time;durP1;ratioP1;P1;durP2;ratioP2;P2;SDS_P1;SDS_P2;PMS_P1;PMS_P2;Temp;Humidity;BMP_temperature;BMP_pressure;BME280_temperature;BME280_humidity;BME280_pressure;Samples;Min_cycle;Max_cycle;Signal;HPM_P1;HPM_P2
2021/09/27 00:00:51;;;;;;;2.43;2.13;;;;;;;19.38;74.58;99020.38;6254172;22;41610;-87
2021/09/27 00:03:26;;;;;;;3.40;2.87;;;;;;;19.46;74.40;99033.06;6281625;22;42573;-83
2021/09/27 00:05:54;;;;;;;4.23;3.30;;;;;;;19.45;74.04;99038.59;6281691;22;40287;-83
2021/09/27 00:08:22;;;;;;;3.43;2.70;;;;;;;19.44;74.15;99035.06;6281090;22;42107;-84
2021/09/27 00:10:53;;;;;;;3.50;2.83;;;;;;;19.43;74.84;99022.59;6281377;22;42007;-84
2021/09/27 00:13:23;;;;;;;3.10;2.80;;;;;;;19.39;74.52;99021.22;6300540;22;42999;-86
2021/09/27 00:15:54;;;;;;;3.47;2.93;;;;;;;19.37;75.28;99013.31;6281240;22;39159;-85
2021/09/27 00:18:22;;;;;;;3.60;3.10;;;;;;;19.16;75.13;98988.53;6282422;22;42105;-87
2021/09/27 00:20:55;;;;;;;3.47;2.90;;;;;;;19.31;75.55;99018.41;6281167;22;43412;-83
2021/09/27 00:23:24;;;;;;;3.83;3.40;;;;;;;19.20;75.50;99011.38;6309175;22;43523;-86
2021/09/27 00:25:51;;;;;;;4.43;3.37;;;;;;;19.14;74.96;99011.16;6280582;22;39106;-84
2021/09/27 00:28:20;;;;;;;3.53;3.07;;;;;;;19.25;75.47;99027.06;6308741;22;42531;-85
2021/09/27 00:30:48;;;;;;;3.67;3.17;;;;;;;19.13;75.16;99023.72;6255294;22;41934;-87
2021/09/27 00:33:17;;;;;;;3.20;2.50;;;;;;;19.04;74.95;99000.41;6308225;22;42325;-84
2021/09/27 00:35:45;;;;;;;4.27;3.63;;;;;;;19.13;75.19;99026.41;6256410;22;39255;-84
2021/09/27 00:38:14;;;;;;;3.87;3.50;;;;;;;19.19;74.90;99041.06;6308934;22;42871;-83
2021/09/27 00:40:46;;;;;;;4.23;3.23;;;;;;;19.20;74.86;99045.44;6254481;22;41707;-83
2021/09/27 00:43:14;;;;;;;3.43;2.70;;;;;;;19.19;74.84;99046.44;6256064;22;41437;-83
2021/09/27 00:45:45;;;;;;;4.20;3.00;;;;;;;19.16;75.10;99036.88;6281789;22;40260;-85
2021/09/27 00:48:13;;;;;;;4.00;2.80;;;;;;;19.15;75.09;99034.31;6281434;22;41491;-86
2021/09/27 00:50:43;;;;;;;4.17;3.20;;;;;;;19.13;75.37;99036.31;6281491;22;42723;-85
2021/09/27 00:53:20;;;;;;;5.57;4.03;;;;;;;19.10;75.36;99025.84;6255484;22;41627;-84
2021/09/27 00:55:48;;;;;;;3.77;3.10;;;;;;;19.01;75.40;99006.94;6280855;22;39355;-86
2021/09/27 00:58:17;;;;;;;4.60;3.90;;;;;;;18.97;75.32;99010.91;6308603;22;41889;-83
2021/09/27 01:00:53;;;;;;;5.13;4.27;;;;;;;19.04;75.24;99029.13;6280871;22;41918;-85
2021/09/27 01:03:22;;;;;;;4.10;3.23;;;;;;;19.02;75.57;99035.47;6280861;22;43375;-84
2021/09/27 01:05:57;;;;;;;5.03;4.13;;;;;;;19.00;75.08;99032.09;6281517;22;40425;-85
2021/09/27 01:08:36;;;;;;;4.30;3.63;;;;;;;19.01;75.38;99031.09;6255356;22;40742;-84
2021/09/27 01:11:21;;;;;;;4.73;3.07;;;;;;;18.92;75.36;99013.16;6254705;22;41832;-85
2021/09/27 01:14:15;;;;;;;3.97;3.40;;;;;;;18.95;75.29;99023.63;6281099;22;43215;-85
2021/09/27 01:16:53;;;;;;;6.00;4.03;;;;;;;18.96;75.34;99035.19;6281072;22;40047;-84
2021/09/27 01:20:01;;;;;;;6.23;4.33;;;;;;;18.82;75.53;99016.84;6308143;22;41716;-86
2021/09/27 01:22:50;;;;;;;5.77;3.87;;;;;;;18.83;75.52;99024.75;6281347;22;42866;-85
2021/09/27 01:26:03;;;;;;;5.30;4.70;;;;;;;18.83;75.58;99029.28;6307997;22;42519;-87
2021/09/27 01:28:54;;;;;;;6.80;4.60;;;;;;;18.69;75.93;99019.84;6241039;22;39896;-83
2021/09/27 01:31:54;;;;;;;5.67;3.93;;;;;;;18.77;76.12;99024.50;6280923;22;40916;-84
2021/09/27 01:34:28;;;;;;;5.53;4.07;;;;;;;18.73;75.94;99034.69;6281357;22;43146;-83
2021/09/27 01:37:02;;;;;;;5.47;3.63;;;;;;;18.70;76.27;99032.25;6254874;22;41568;-81
2021/09/27 01:39:38;;;;;;;4.63;3.93;;;;;;;18.60;76.18;99016.19;6255168;22;39095;-85
2021/09/27 01:42:11;;;;;;;5.93;3.30;;;;;;;18.61;76.18;99019.72;6255053;22;42012;-84
2021/09/27 01:44:46;;;;;;;8.23;5.57;;;;;;;18.56;76.13;99006.69;6255069;22;42015;-84
2021/09/27 01:47:25;;;;;;;5.23;3.83;;;;;;;18.63;76.64;99023.13;6308037;22;42530;-85
2021/09/27 01:49:59;;;;;;;4.37;3.23;;;;;;;18.59;76.35;99027.06;6282575;22;39226;-83
2021/09/27 01:52:34;;;;;;;4.77;3.53;;;;;;;18.59;76.39;99029.75;6281333;22;42099;-85
2021/09/27 01:55:07;;;;;;;7.70;3.63;;;;;;;18.59;77.22;99021.69;6282774;22;43026;-82
2021/09/27 01:57:43;;;;;;;3.90;3.43;;;;;;;18.58;77.39;99014.63;6282226;22;42598;-85
2021/09/27 02:00:15;;;;;;;6.23;4.23;;;;;;;18.55;76.78;99013.03;6282281;22;38998;-85
2021/09/27 02:02:58;;;;;;;4.90;3.37;;;;;;;18.55;77.22;99020.25;6282609;22;42256;-85
2021/09/27 02:05:33;;;;;;;4.47;3.20;;;;;;;18.56;76.57;99021.94;6282166;22;43308;-84
2021/09/27 02:08:06;;;;;;;3.80;3.30;;;;;;;18.55;76.50;99029.13;6256579;22;41423;-85
2021/09/27 02:10:39;;;;;;;3.87;3.10;;;;;;;18.58;76.52;99022.69;6281457;22;40026;-84
2021/09/27 02:13:15;;;;;;;3.90;3.40;;;;;;;18.50;76.08;99007.28;6281950;22;41686;-85
2021/09/27 02:15:49;;;;;;;3.53;2.73;;;;;;;18.60;76.00;99005.47;6279788;22;42319;-83
2021/09/27 02:18:24;;;;;;;4.10;3.23;;;;;;;18.69;75.56;99011.78;6256856;22;41315;-84
2021/09/27 02:20:57;;;;;;;3.83;3.10;;;;;;;18.75;75.38;99021.13;6282317;22;39086;-83
2021/09/27 02:23:31;;;;;;;3.90;3.07;;;;;;;18.72;75.37;99032.97;6282174;22;42094;-84
2021/09/27 02:25:59;;;;;;;5.07;4.10;;;;;;;18.66;75.11;99028.19;6281644;22;42556;-85
2021/09/27 02:28:28;;;;;;;3.90;3.47;;;;;;;18.61;75.85;99030.44;6256527;22;41262;-83
2021/09/27 02:31:02;;;;;;;4.57;3.73;;;;;;;18.54;76.61;99026.63;6281156;22;40377;-83
2021/09/27 02:33:36;;;;;;;8.03;5.27;;;;;;;18.47;76.21;99017.44;6282120;22;41807;-86
2021/09/27 02:36:08;;;;;;;3.97;3.30;;;;;;;18.48;76.27;99025.34;6280641;22;42689;-85
2021/09/27 02:38:43;;;;;;;4.70;3.47;;;;;;;18.39;76.41;99011.94;6281791;22;42354;-84
2021/09/27 02:41:21;;;;;;;4.40;3.20;;;;;;;18.44;75.77;99023.06;6256970;22;41406;-83
2021/09/27 02:43:56;;;;;;;3.93;3.17;;;;;;;18.60;75.81;99028.75;6256251;22;42259;-83
2021/09/27 02:46:23;;;;;;;4.37;3.20;;;;;;;18.68;75.39;99031.56;6281971;22;43793;-84
2021/09/27 02:49:09;;;;;;;4.67;4.13;;;;;;;18.73;75.50;99033.81;6309076;22;43390;-85
2021/09/27 02:51:38;;;;;;;3.17;2.67;;;;;;;18.75;74.97;99039.91;6280636;22;39143;-84
2021/09/27 02:54:08;;;;;;;3.43;2.90;;;;;;;18.66;74.91;99017.47;6281576;22;42076;-84
2021/09/27 02:56:59;;;;;;;3.83;3.30;;;;;;;18.76;75.13;99039.75;6256312;22;42149;-84
2021/09/27 02:59:40;;;;;;;4.20;3.33;;;;;;;18.72;74.85;99016.88;6255729;22;41677;-83
2021/09/27 03:02:24;;;;;;;6.37;4.20;;;;;;;18.80;74.82;99030.41;6255038;22;38812;-84
2021/09/27 03:05:07;;;;;;;4.00;3.13;;;;;;;18.80;74.90;99024.19;6282548;22;42812;-83
2021/09/27 03:07:46;;;;;;;4.97;4.37;;;;;;;18.70;75.16;99015.31;6256469;22;41853;-84
2021/09/27 03:10:34;;;;;;;4.80;3.10;;;;;;;18.70;75.06;99012.63;6282031;22;42219;-87
2021/09/27 03:13:12;;;;;;;4.37;3.57;;;;;;;18.61;75.29;98991.06;6309395;22;40220;-82
2021/09/27 03:15:59;;;;;;;4.37;3.40;;;;;;;18.62;75.07;98994.59;6255731;22;42255;-85
2021/09/27 03:18:40;;;;;;;4.70;4.20;;;;;;;18.86;75.09;99019.13;6256146;22;41663;-84
2021/09/27 03:21:25;;;;;;;5.00;3.70;;;;;;;18.87;75.32;99019.97;6281192;22;41258;-83
2021/09/27 03:24:10;;;;;;;4.07;3.47;;;;;;;18.85;75.51;99012.06;6309757;22;39430;-83
2021/09/27 03:26:50;;;;;;;5.07;3.77;;;;;;;18.74;76.05;98993.44;6281840;22;42083;-85
2021/09/27 03:29:27;;;;;;;5.00;3.70;;;;;;;18.67;76.44;98998.50;6276187;22;41841;-83
2021/09/27 03:32:02;;;;;;;4.20;3.43;;;;;;;18.73;76.36;99018.56;6297070;22;43511;-82
2021/09/27 03:34:38;;;;;;;4.03;3.50;;;;;;;18.72;76.38;99010.66;6257165;22;39019;-83
2021/09/27 03:37:21;;;;;;;7.60;5.13;;;;;;;18.66;76.97;99006.72;6281713;22;42057;-85
2021/09/27 03:40:02;;;;;;;5.10;3.80;;;;;;;18.50;76.73;98984.97;6281442;22;42074;-85
2021/09/27 03:42:40;;;;;;;3.70;3.30;;;;;;;18.44;76.55;98989.06;6308941;22;42687;-83
2021/09/27 03:45:13;;;;;;;4.23;3.73;;;;;;;18.46;76.61;99005.00;6281416;22;41119;-83
2021/09/27 03:47:52;;;;;;;4.23;3.63;;;;;;;18.20;76.34;98972.56;6281798;22;40988;-86
2021/09/27 03:50:26;;;;;;;4.20;3.30;;;;;;;18.22;76.35;98987.50;6281016;22;42065;-85
2021/09/27 03:53:00;;;;;;;4.20;3.10;;;;;;;18.15;76.24;98991.75;6256379;22;41440;-83
2021/09/27 03:55:34;;;;;;;3.37;2.77;;;;;;;18.18;76.25;99012.91;6255698;22;40056;-84
2021/09/27 03:58:08;;;;;;;3.67;2.93;;;;;;;18.02;76.25;98985.81;6282238;22;42697;-83
2021/09/27 04:00:42;;;;;;;3.33;2.97;;;;;;;18.02;76.19;98991.19;6308772;22;43175;-84
2021/09/27 04:03:28;;;;;;;3.90;2.70;;;;;;;17.96;76.14;98991.72;6281826;22;41262;-82
2021/09/27 04:06:17;;;;;;;3.33;3.03;;;;;;;17.94;76.08;99001.72;6281552;22;40437;-84
2021/09/27 04:09:00;;;;;;;3.37;2.70;;;;;;;17.78;75.98;98982.69;6282048;22;40660;-83
2021/09/27 04:11:35;;;;;;;3.97;2.67;;;;;;;17.82;75.90;98997.47;6307954;22;42622;-82
2021/09/27 04:14:10;;;;;;;3.90;2.73;;;;;;;17.78;76.17;98998.75;6280673;22;41156;-85
2021/09/27 04:17:00;;;;;;;3.80;2.83;;;;;;;17.60;76.29;98977.94;6281015;22;39868;-83
2021/09/27 04:19:33;;;;;;;3.60;2.70;;;;;;;17.69;76.25;98996.88;6309408;22;42031;-84
2021/09/27 04:22:07;;;;;;;4.03;2.97;;;;;;;17.67;75.96;99009.59;6255165;22;42215;-84
2021/09/27 04:24:49;;;;;;;3.23;2.83;;;;;;;17.65;76.42;99011.56;6255351;22;41523;-84
2021/09/27 04:27:29;;;;;;;4.97;3.80;;;;;;;17.53;76.32;98998.25;6256212;22;39338;-85
2021/09/27 04:30:23;;;;;;;4.47;3.47;;;;;;;17.52;76.43;99004.56;6281015;22;41095;-85
2021/09/27 04:33:10;;;;;;;4.03;3.07;;;;;;;17.47;76.56;99000.59;6309140;22;43220;-82
2021/09/27 04:35:46;;;;;;;4.57;2.90;;;;;;;17.46;76.28;99007.78;6255645;22;41467;-85
2021/09/27 04:38:16;;;;;;;5.53;3.30;;;;;;;17.57;76.56;99013.03;6280808;22;39930;-82
2021/09/27 04:41:22;;;;;;;5.00;3.70;;;;;;;17.66;76.51;99023.97;6307412;22;41938;-85
2021/09/27 04:44:05;;;;;;;4.63;3.43;;;;;;;17.63;76.44;99005.44;6255418;22;42103;-83
2021/09/27 04:46:39;;;;;;;7.43;4.30;;;;;;;17.62;76.30;99004.59;6255445;22;41670;-83
2021/09/27 04:49:34;;;;;;;5.63;3.87;;;;;;;17.75;76.36;99015.09;6255704;22;40544;-85
2021/09/27 04:52:09;;;;;;;4.90;3.50;;;;;;;17.65;76.40;99001.69;6243192;22;42218;-83
2021/09/27 04:55:12;;;;;;;5.83;4.10;;;;;;;17.77;76.74;99018.50;6255365;22;42048;-86
2021/09/27 04:57:57;;;;;;;7.77;4.43;;;;;;;17.76;76.72;99016.78;6280504;22;42763;-83
2021/09/27 05:00:34;;;;;;;6.03;3.83;;;;;;;17.70;76.18;99007.47;6279851;22;39223;-85
2021/09/27 05:03:34;;;;;;;4.60;3.70;;;;;;;17.85;76.08;99024.00;6281827;22;40727;-84
2021/09/27 05:06:40;;;;;;;5.03;3.43;;;;;;;17.90;76.48;99024.44;6281068;22;42036;-84
2021/09/27 05:09:24;;;;;;;7.27;4.90;;;;;;;17.98;75.94;99031.78;6247612;22;41617;-86
2021/09/27 05:12:19;;;;;;;4.73;3.73;;;;;;;18.04;75.76;99026.72;6255586;22;40035;-82
2021/09/27 05:14:56;;;;;;;4.30;3.27;;;;;;;18.05;75.76;99020.34;6242835;22;40758;-84
2021/09/27 05:17:54;;;;;;;4.13;2.97;;;;;;;17.99;75.66;98995.97;6254707;22;43234;-86
2021/09/27 05:20:48;;;;;;;4.23;3.13;;;;;;;18.08;75.66;99001.31;6281512;22;41604;-84
2021/09/27 05:23:22;;;;;;;4.70;3.57;;;;;;;18.08;75.35;98998.66;6280887;22;39040;-84
2021/09/27 05:26:24;;;;;;;5.90;3.33;;;;;;;18.10;75.79;99004.72;6280399;22;41807;-85
2021/09/27 05:29:07;;;;;;;5.67;4.37;;;;;;;17.95;76.34;98973.94;6256442;22;42879;-86
2021/09/27 05:32:09;;;;;;;7.03;4.60;;;;;;;18.07;76.63;99005.00;6309767;22;42464;-85
2021/09/27 05:34:49;;;;;;;7.23;4.13;;;;;;;18.02;76.92;99007.25;6252980;22;39021;-86
2021/09/27 05:37:29;;;;;;;5.90;3.47;;;;;;;17.96;76.90;99007.81;6255888;22;41675;-86
2021/09/27 05:40:10;;;;;;;4.80;3.40;;;;;;;17.94;76.44;99005.25;6256587;22;43262;-85
2021/09/27 05:42:51;;;;;;;5.17;3.33;;;;;;;17.91;76.69;99010.06;6282567;22;41218;-85
2021/09/27 05:45:27;;;;;;;5.40;3.47;;;;;;;17.87;76.19;99011.31;6281840;22;40417;-82
2021/09/27 05:48:05;;;;;;;4.13;3.23;;;;;;;17.77;76.01;98997.06;6280622;22;42091;-84
2021/09/27 05:50:48;;;;;;;3.53;3.13;;;;;;;17.82;76.33;99006.34;6256019;22;42282;-86
2021/09/27 05:53:24;;;;;;;3.37;3.07;;;;;;;17.83;76.22;98996.50;6255363;22;41622;-83
2021/09/27 05:56:01;;;;;;;4.83;2.90;;;;;;;17.84;75.82;98999.03;6244247;22;40201;-84
2021/09/27 05:58:33;;;;;;;4.40;3.20;;;;;;;17.90;75.87;99008.38;6281280;22;41225;-84
2021/09/27 06:01:07;;;;;;;6.93;4.17;;;;;;;17.83;76.12;99008.06;6282194;22;43899;-86
2021/09/27 06:03:53;;;;;;;6.67;4.70;;;;;;;17.84;76.09;99019.63;6309064;22;43071;-85
2021/09/27 06:06:32;;;;;;;6.33;4.90;;;;;;;17.84;76.09;99008.91;6264919;22;39917;-83
2021/09/27 06:09:19;;;;;;;6.37;3.47;;;;;;;17.84;76.53;99014.25;6296758;22;41750;-83
2021/09/27 06:11:55;;;;;;;5.43;4.27;;;;;;;17.86;76.09;99018.50;6255686;22;42134;-81
2021/09/27 06:14:23;;;;;;;5.73;3.83;;;;;;;17.87;76.05;99014.84;6309595;22;42184;-83
2021/09/27 06:17:18;;;;;;;5.07;3.60;;;;;;;17.94;76.21;99010.63;6252061;22;38923;-80
2021/09/27 06:19:48;;;;;;;6.07;3.83;;;;;;;18.03;75.70;99008.97;6280765;22;40669;-78
2021/09/27 06:22:42;;;;;;;7.40;4.70;;;;;;;18.24;76.03;99031.13;6281288;22;41708;-77
2021/09/27 06:25:19;;;;;;;7.50;5.87;;;;;;;18.36;75.58;99028.31;6298187;22;42412;-81
2021/09/27 06:27:55;;;;;;;7.90;5.03;;;;;;;18.44;75.53;99023.06;6281779;22;38924;-87
2021/09/27 06:30:29;;;;;;;8.27;5.20;;;;;;;18.55;75.51;99030.97;6282383;22;42096;-81
2021/09/27 06:33:10;;;;;;;5.70;3.87;;;;;;;18.52;75.16;99020.53;6256206;22;43147;-80
2021/09/27 06:35:39;;;;;;;6.53;4.50;;;;;;;18.69;75.31;99022.53;6281228;22;42417;-82
2021/09/27 06:38:12;;;;;;;5.47;3.73;;;;;;;18.81;75.12;99032.09;6256137;22;39190;-83
2021/09/27 06:40:43;;;;;;;6.87;4.60;;;;;;;18.91;74.96;99030.28;6282149;22;42033;-81
2021/09/27 06:43:16;;;;;;;5.43;4.40;;;;;;;18.92;74.92;99018.53;6255810;22;41697;-79
2021/09/27 06:45:43;;;;;;;6.63;4.17;;;;;;;19.05;74.63;99030.78;6309051;22;42705;-84
2021/09/27 06:48:12;;;;;;;7.50;4.57;;;;;;;19.13;74.52;99030.94;6281249;22;39120;-87
2021/09/27 06:50:39;;;;;;;6.50;4.50;;;;;;;19.24;74.49;99022.69;6305557;22;41263;-81
2021/09/27 06:53:09;;;;;;;6.33;4.83;;;;;;;19.30;73.84;99017.56;6307463;22;43528;-83
2021/09/27 06:55:36;;;;;;;6.87;4.63;;;;;;;19.18;73.75;98985.69;6281544;22;42578;-77
2021/09/27 06:58:04;;;;;;;5.47;4.10;;;;;;;19.47;74.04;99024.00;6281417;22;39231;-80
2021/09/27 07:00:32;;;;;;;7.23;4.83;;;;;;;19.52;73.55;99021.78;6281243;22;41656;-83
2021/09/27 07:02:59;;;;;;;6.03;3.70;;;;;;;19.56;73.77;99025.84;6280291;22;43980;-80
2021/09/27 07:05:27;;;;;;;6.53;4.40;;;;;;;19.62;73.81;99022.56;6308014;22;42334;-79
2021/09/27 07:07:55;;;;;;;6.23;4.60;;;;;;;19.70;73.43;99025.34;6307814;22;40181;-78
2021/09/27 07:10:25;;;;;;;8.47;5.67;;;;;;;19.80;73.46;99022.59;6279692;22;40878;-78
2021/09/27 07:12:52;;;;;;;6.50;3.83;;;;;;;19.95;73.18;99020.25;6308233;22;43134;-83
2021/09/27 07:15:21;;;;;;;6.77;4.70;;;;;;;20.09;72.94;99025.13;6280837;22;41615;-82
2021/09/27 07:17:49;;;;;;;5.97;3.77;;;;;;;20.11;72.67;99016.91;6306597;22;41910;-79
2021/09/27 07:20:19;;;;;;;6.10;4.63;;;;;;;20.35;72.31;99035.97;6280799;22;40768;-81
2021/09/27 07:22:47;;;;;;;6.77;4.80;;;;;;;20.56;72.31;99022.22;6255518;22;43217;-80
2021/09/27 07:25:16;;;;;;;6.03;5.07;;;;;;;20.88;71.43;99029.75;6280525;22;42919;-77
2021/09/27 07:27:47;;;;;;;6.30;4.67;;;;;;;21.10;70.78;99042.69;6307413;22;40050;-83
2021/09/27 07:30:16;;;;;;;7.03;4.73;;;;;;;21.27;70.00;99038.25;6255568;22;40649;-80
2021/09/27 07:32:44;;;;;;;6.53;4.53;;;;;;;21.59;69.97;99032.22;6308860;22;43216;-82
2021/09/27 07:35:16;;;;;;;6.40;4.40;;;;;;;22.56;68.48;99032.50;6280799;22;41881;-79
2021/09/27 07:37:43;;;;;;;4.80;3.80;;;;;;;23.32;66.42;99044.81;6281086;22;39425;-83
2021/09/27 07:40:15;;;;;;;5.73;4.50;;;;;;;23.48;65.37;99039.38;6255906;22;41704;-87
2021/09/27 07:42:45;;;;;;;7.60;4.30;;;;;;;23.64;63.73;99042.03;6255733;22;43213;-84
2021/09/27 07:45:15;;;;;;;6.07;4.93;;;;;;;23.57;63.93;99041.06;6281347;22;42765;-84
2021/09/27 07:47:42;;;;;;;5.03;3.90;;;;;;;23.46;64.07;99036.00;6309171;22;40209;-81
2021/09/27 07:50:11;;;;;;;4.70;3.73;;;;;;;23.36;64.48;99035.38;6308099;22;42612;-83
2021/09/27 07:52:41;;;;;;;7.83;5.60;;;;;;;23.20;63.81;99039.78;6254704;22;43067;-83
2021/09/27 07:55:10;;;;;;;8.80;6.50;;;;;;;23.01;63.79;99036.59;6254794;22;42670;-86
2021/09/27 07:57:46;;;;;;;8.13;4.50;;;;;;;22.80;63.75;99031.72;6308770;22;40398;-81
2021/09/27 08:00:16;;;;;;;7.10;4.60;;;;;;;22.74;63.75;99030.50;6280836;22;41789;-85
2021/09/27 08:02:44;;;;;;;5.27;3.93;;;;;;;22.69;64.45;99032.00;6281096;22;42950;-82
2021/09/27 08:05:16;;;;;;;3.83;3.43;;;;;;;22.60;64.60;99024.94;6254826;22;42555;-82
2021/09/27 08:07:44;;;;;;;4.30;3.27;;;;;;;22.72;64.63;99026.28;6281173;22;39917;-79
2021/09/27 08:10:12;;;;;;;4.27;3.27;;;;;;;22.89;64.20;99033.38;6280414;22;42644;-79
2021/09/27 08:12:48;;;;;;;3.70;3.30;;;;;;;23.31;62.97;99030.47;6305024;22;43523;-83
2021/09/27 08:15:18;;;;;;;5.33;4.10;;;;;;;24.62;60.96;99032.38;6282649;22;41596;-83
2021/09/27 08:17:47;;;;;;;5.03;3.60;;;;;;;26.18;57.66;99021.63;6308702;22;40271;-83
2021/09/27 08:20:18;;;;;;;4.57;4.00;;;;;;;26.92;55.77;99028.44;6282562;22;41578;-88
2021/09/27 08:22:46;;;;;;;4.87;3.43;;;;;;;27.46;53.63;99033.25;6334059;22;43446;-84
2021/09/27 08:25:15;;;;;;;4.30;3.90;;;;;;;28.88;50.95;99056.94;6304806;22;43936;-83
2021/09/27 08:27:45;;;;;;;3.90;3.10;;;;;;;29.07;49.17;99038.88;6289160;22;40268;-83
2021/09/27 08:30:18;;;;;;;5.17;3.87;;;;;;;29.68;47.01;99068.66;6320281;22;43086;-81
2021/09/27 08:32:46;;;;;;;3.27;2.97;;;;;;;30.34;46.03;99069.31;6293723;22;43409;-81
2021/09/27 08:35:15;;;;;;;4.07;3.40;;;;;;;31.45;43.82;99087.09;6268220;22;41296;-83
2021/09/27 08:37:43;;;;;;;3.80;3.50;;;;;;;32.68;42.19;99085.91;6262753;22;40228;-84
2021/09/27 08:40:23;;;;;;;3.27;2.97;;;;;;;33.40;40.23;99092.22;6280770;22;40986;-86
2021/09/27 08:42:55;;;;;;;3.60;3.30;;;;;;;33.84;38.48;99093.56;6307358;22;42960;-88
2021/09/27 08:45:28;;;;;;;3.60;3.30;;;;;;;34.36;37.18;99112.88;6275839;22;41394;-87
2021/09/27 08:48:01;;;;;;;3.33;3.00;;;;;;;33.76;38.44;99084.84;6243980;22;39025;-88
2021/09/27 08:50:33;;;;;;;3.90;3.23;;;;;;;32.64;39.94;99076.47;6255550;22;42171;-86
2021/09/27 08:53:04;;;;;;;2.80;2.60;;;;;;;32.05;40.22;99088.19;6254270;22;42674;-84
2021/09/27 08:55:34;;;;;;;3.10;2.90;;;;;;;32.54;40.00;99097.28;6308807;22;41700;-85
2021/09/27 08:58:09;;;;;;;3.47;3.17;;;;;;;33.47;38.65;99094.88;6254777;22;41134;-88
2021/09/27 09:00:41;;;;;;;4.20;3.90;;;;;;;34.15;37.33;99105.22;6254772;22;41614;-86
2021/09/27 09:03:18;;;;;;;3.87;3.57;;;;;;;34.13;36.08;99093.63;6254802;22;42166;-89
2021/09/27 09:05:52;;;;;;;2.80;2.60;;;;;;;33.75;36.91;99100.53;6280503;22;42121;-87
2021/09/27 09:08:27;;;;;;;3.00;2.80;;;;;;;33.45;37.71;99078.63;6254955;22;39509;-86
2021/09/27 09:11:00;;;;;;;3.50;2.83;;;;;;;32.92;38.53;99084.09;6254946;22;41226;-85
2021/09/27 09:13:34;;;;;;;4.53;3.60;;;;;;;32.09;39.37;99089.41;6280607;22;42802;-90
2021/09/27 09:16:07;;;;;;;2.80;2.60;;;;;;;31.42;40.30;99071.94;6254894;22;41707;-82
2021/09/27 09:18:47;;;;;;;3.27;2.83;;;;;;;30.76;41.08;99056.06;6280186;22;39058;-84
2021/09/27 09:21:27;;;;;;;2.93;2.60;;;;;;;30.38;42.24;99079.81;6281002;22;41937;-82
2021/09/27 09:23:57;;;;;;;2.60;2.40;;;;;;;30.04;42.86;99070.91;6243006;22;42296;-85
2021/09/27 09:26:29;;;;;;;3.23;2.70;;;;;;;29.76;42.89;99064.88;6268510;22;41684;-84
2021/09/27 09:28:58;;;;;;;3.53;3.13;;;;;;;29.58;43.66;99057.34;6244088;22;39444;-84
2021/09/27 09:31:34;;;;;;;2.57;2.37;;;;;;;29.55;43.59;99074.97;6280416;22;41247;-84
2021/09/27 09:34:27;;;;;;;3.23;2.50;;;;;;;29.02;43.80;99067.84;6254552;22;43095;-88
2021/09/27 09:37:08;;;;;;;2.47;2.27;;;;;;;28.47;44.91;99051.59;6254398;22;41465;-83
2021/09/27 09:39:53;;;;;;;2.87;2.50;;;;;;;28.06;46.02;99040.75;6280403;22;40167;-85
2021/09/27 09:42:29;;;;;;;2.97;2.63;;;;;;;27.94;46.51;99064.16;6254326;22;40998;-82
2021/09/27 09:44:56;;;;;;;2.57;2.30;;;;;;;27.61;47.32;99049.50;6280298;22;43072;-82
2021/09/27 09:47:35;;;;;;;4.47;2.73;;;;;;;27.29;48.27;99049.06;6279748;22;42748;-89
2021/09/27 09:50:05;;;;;;;2.80;2.53;;;;;;;27.21;48.63;99057.34;6295887;22;40079;-86
2021/09/27 09:52:37;;;;;;;3.13;2.43;;;;;;;27.31;48.51;99062.47;6255687;22;40729;-82
2021/09/27 09:55:16;;;;;;;3.50;3.20;;;;;;;27.70;48.43;99064.63;6254635;22;42122;-80
2021/09/27 09:57:54;;;;;;;3.00;2.70;;;;;;;28.08;47.04;99071.31;6254885;22;41519;-83
2021/09/27 10:00:38;;;;;;;2.97;2.53;;;;;;;28.54;45.99;99076.13;6253719;22;40279;-84
2021/09/27 10:03:09;;;;;;;3.50;3.20;;;;;;;28.84;44.87;99066.56;6255030;22;40784;-86
2021/09/27 10:05:41;;;;;;;4.07;3.20;;;;;;;28.92;45.44;99074.56;6281548;22;42529;-87
2021/09/27 10:08:17;;;;;;;3.13;2.67;;;;;;;28.73;45.29;99078.06;6280403;22;42222;-86
2021/09/27 10:10:56;;;;;;;3.60;3.30;;;;;;;28.58;45.00;99034.63;6280281;22;38912;-86
2021/09/27 10:13:37;;;;;;;3.50;3.20;;;;;;;28.89;45.48;99069.53;6281543;22;42164;-87
2021/09/27 10:16:09;;;;;;;3.10;2.80;;;;;;;28.47;45.06;99086.16;6281376;22;42842;-87
2021/09/27 10:18:41;;;;;;;4.50;3.00;;;;;;;27.78;45.85;99070.75;6308925;22;42430;-86
2021/09/27 10:21:26;;;;;;;3.57;2.93;;;;;;;27.30;47.06;99058.91;6255485;22;40107;-87
2021/09/27 10:23:58;;;;;;;3.20;2.83;;;;;;;26.93;48.40;99053.78;6256374;22;41096;-87
2021/09/27 10:26:33;;;;;;;2.80;2.60;;;;;;;26.78;48.95;99051.94;6280820;22;42076;-86
2021/09/27 10:29:06;;;;;;;3.33;3.03;;;;;;;26.99;48.38;99063.88;6257089;22;42621;-87
2021/09/27 10:31:37;;;;;;;3.43;3.10;;;;;;;28.63;45.07;99074.91;6282303;22;40315;-85
2021/09/27 10:34:11;;;;;;;3.00;2.70;;;;;;;29.66;43.22;99087.16;6256102;22;40824;-87
2021/09/27 10:36:43;;;;;;;2.47;2.07;;;;;;;29.78;42.59;99073.69;6308975;22;42906;-87
2021/09/27 10:39:15;;;;;;;2.00;1.90;;;;;;;31.02;40.60;99087.84;6307947;22;43291;-87
2021/09/27 10:41:54;;;;;;;2.57;2.37;;;;;;;31.99;38.78;99089.09;6280252;22;39906;-91
2021/09/27 10:44:24;;;;;;;2.40;2.20;;;;;;;32.48;36.52;99099.91;6274904;22;40873;-89
2021/09/27 10:47:03;;;;;;;2.00;1.83;;;;;;;33.58;34.98;99099.53;6244771;22;41543;-87
2021/09/27 10:49:36;;;;;;;2.07;1.87;;;;;;;34.67;33.07;99116.22;6256204;22;42798;-81
2021/09/27 10:52:22;;;;;;;1.98;1.88;;;;;;;36.03;31.17;99116.94;6308556;22;40061;-87
2021/09/27 10:54:58;;;;;;;1.60;1.50;;;;;;;37.69;29.02;99125.44;6256706;22;40746;-86
2021/09/27 10:57:37;;;;;;;1.50;1.40;;;;;;;38.79;27.26;99146.53;6255559;22;42799;-88
2021/09/27 11:00:14;;;;;;;1.88;1.73;;;;;;;38.51;27.37;99138.66;6255374;22;41613;-81
2021/09/27 11:02:47;;;;;;;1.33;1.23;;;;;;;38.47;27.68;99135.59;6255139;22;39157;-80
2021/09/27 11:05:32;;;;;;;1.50;1.40;;;;;;;39.25;26.33;99149.41;6254545;22;40990;-81
2021/09/27 11:08:08;;;;;;;2.10;1.63;;;;;;;40.55;24.80;99145.97;6280444;22;43823;-83
2021/09/27 11:10:43;;;;;;;1.52;1.42;;;;;;;41.67;23.75;99157.22;6254021;22;41598;-83
2021/09/27 11:13:37;;;;;;;1.52;1.42;;;;;;;43.39;21.36;99157.13;6281404;22;40080;-85
2021/09/27 11:16:16;;;;;;;2.15;1.30;;;;;;;44.75;19.85;99158.53;6280662;22;41114;-84
2021/09/27 11:18:55;;;;;;;2.20;1.52;;;;;;;45.98;19.16;99149.69;6308092;22;42954;-88
2021/09/27 11:21:44;;;;;;;1.30;1.20;;;;;;;46.82;18.26;99148.69;6255188;22;41171;-86
2021/09/27 11:24:49;;;;;;;1.50;1.40;;;;;;;47.63;17.70;99151.69;6279975;22;40238;-83
2021/09/27 11:27:33;;;;;;;1.60;1.50;;;;;;;47.36;17.55;99146.41;6281506;22;41375;-82
2021/09/27 11:30:35;;;;;;;1.52;1.42;;;;;;;45.48;18.75;99126.63;6278126;22;42880;-82
2021/09/27 11:33:05;;;;;;;1.58;1.48;;;;;;;43.82;20.42;99115.09;6271203;22;42719;-83
2021/09/27 11:35:40;;;;;;;1.58;1.48;;;;;;;43.11;20.27;99117.09;6254083;22;39739;-85
2021/09/27 11:38:32;;;;;;;1.70;1.40;;;;;;;44.15;19.98;99116.69;6253487;22;41819;-87
2021/09/27 11:41:30;;;;;;;1.50;1.40;;;;;;;43.00;20.32;99123.97;6278742;22;41782;-87
2021/09/27 11:44:12;;;;;;;1.42;1.33;;;;;;;40.84;22.48;99087.75;6268934;22;41347;-82
2021/09/27 11:46:59;;;;;;;1.38;1.27;;;;;;;40.02;23.20;99098.38;6254733;22;39288;-86
2021/09/27 11:49:37;;;;;;;1.48;1.38;;;;;;;39.27;23.54;99075.16;6275602;22;41826;-81
2021/09/27 11:52:10;;;;;;;1.60;1.50;;;;;;;38.49;24.42;99068.06;6254809;22;42131;-84
2021/09/27 11:54:51;;;;;;;1.58;1.48;;;;;;;40.14;23.28;99062.00;6281596;22;42435;-83
2021/09/27 11:57:29;;;;;;;1.38;1.27;;;;;;;40.38;22.25;99093.56;6254764;22;40377;-84
2021/09/27 12:00:07;;;;;;;1.70;1.60;;;;;;;38.73;23.94;99083.94;6280979;22;41832;-84
2021/09/27 12:02:44;;;;;;;1.60;1.50;;;;;;;37.31;25.38;99061.03;6255025;22;42179;-85
2021/09/27 12:05:40;;;;;;;1.40;1.40;;;;;;;37.17;26.13;99064.50;6279884;22;41466;-80
2021/09/27 12:08:16;;;;;;;1.58;1.48;;;;;;;39.30;24.20;99069.06;6254813;22;39982;-79
2021/09/27 12:10:48;;;;;;;1.48;1.33;;;;;;;41.80;21.63;99075.03;6280005;22;40717;-84
2021/09/27 12:13:20;;;;;;;1.05;1.05;;;;;;;43.69;19.78;99064.53;6280183;22;41738;-81
2021/09/27 12:15:58;;;;;;;1.45;1.38;;;;;;;44.97;18.24;99099.88;6280461;22;41175;-87
2021/09/27 12:18:40;;;;;;;1.33;1.20;;;;;;;45.61;17.89;99094.13;6255264;22;39319;-89